Cambridge, MA (02138)

6:09 AM EDT on May 23, 2015 (GMT -0400)
Huron Village | | Change Station
CLOSE
Current Station
Personal Weather Station
Location: Cambridge, MA
Elevation: 62 ft
Nearby Weather Stations
Active Advisory: Special Statement

Elev 62 ft 42.38 °N, 71.13 °W | Updated 3 minutes ago

Clear
Clear
43.0 °F
Feels Like 43 °F
N
0.0
Wind Variable Wind from North
Gusts 0.0 mph

Today
High -- | Low -- °F
--% Chance of Precip.
Yesterday
High -- | Low -- °F
Precip. -- in
5:16 AM 8:06 PM
Waxing Crescent, 28% visible
Pressure 30.27 in
Visibility 10.0 miles
Clouds Few 2500 ft
Windchill 43 °F
Dew Point 32 °F
Humidity 65%
Rainfall 0.00 in
Snow Depth Not available.
UV 0 out of 12
Pollen 9.90 out of 12
Air Quality Not available.
Flu Activity Local Activity
METAR KBOS 230954Z 32008G18KT 10SM FEW025 07/M05 A3027 RMK AO2 SLP249 T00671050

More Conditions Fewer Conditions

Pressure 30.27 in
Visibility 10.0 miles
Clouds Few 2500 ft
Windchill 43 °F
Dew Point 32 °F
Humidity 65%
Rainfall 0.00 in
Snow Depth Not available.
UV 0 out of 12
Pollen 9.90 out of 12
Air Quality Not available.
Flu Activity Local Activity
METAR KBOS 230954Z 32008G18KT 10SM FEW025 07/M05 A3027 RMK AO2 SLP249 T00671050

More Conditions Fewer Conditions

10-Day Weather Forecast

Almanac

Astronomy

May. 23, 2015 Rise Set
Actual Time
Civil Twilight
Nautical Twilight
Astronomical Twilight
Moon
Length of Visible Light
Length of Day
Tomorrow will be .
, % of the Moon is Illuminated

Today's Extremes

State Highs State Lows

Community

WunderPhotos

Upload Photos

1,823,405 photos uploaded!

WunderBlogs® & News

Nearby

Air Quality

  Air Quality AQ Index Pollutant
Not available.

Snow Depth

Station Depth Elevation

Earthquake Activity

City Distance Mag. Time & Date
Minimum magnitude displayed is 2.5.

Coastal Water Temperatures

Place Temperature

Stations

Nearby Weather Stations

Station Location Temp. Windchill Dew Point Humidity Wind Precip. Elev Updated Type
                   
Special Statement
Statement as of 3:30 AM EDT on May 23, 2015

... Elevated fire weather risk today...

Conditions are favorable for an elevated fire spread potential
across much of southern New England today.

This is due to a lack of significant rainfall over the past
several days... relative humidity between 10 and 20 percent this
afternoon... and west to northwest winds gusting to 25 mph at
times.